createdAt,value
2022-10-18T00:00:35.500Z,100.00
2022-10-18T00:03:37.629Z,100.00
2022-10-18T00:06:42.616Z,100.00
2022-10-18T00:09:45.173Z,100.00
2022-10-18T00:15:59.081Z,100.00
2022-10-18T00:19:00.800Z,100.00
2022-10-18T00:22:02.312Z,100.00
2022-10-18T00:25:05.417Z,100.00
2022-10-18T00:28:06.934Z,100.00
2022-10-18T00:31:14.669Z,100.00
2022-10-18T00:34:16.918Z,100.00
2022-10-18T00:37:18.760Z,100.00
2022-10-18T00:40:20.289Z,100.00
2022-10-18T00:43:21.808Z,100.00
2022-10-18T00:46:25.008Z,100.00
2022-10-18T00:49:32.548Z,100.00
2022-10-18T00:52:40.309Z,100.00
2022-10-18T00:55:42.013Z,100.00
2022-10-18T00:58:44.544Z,100.00
2022-10-18T01:01:46.997Z,100.00
2022-10-18T01:04:48.750Z,100.00
2022-10-18T01:08:06.379Z,100.00
2022-10-18T01:11:46.408Z,100.00
2022-10-18T01:15:31.585Z,100.00
2022-10-18T01:18:41.576Z,100.00
2022-10-18T01:21:50.048Z,100.00
2022-10-18T01:25:14.154Z,100.00
2022-10-18T01:28:24.723Z,100.00
2022-10-18T01:31:36.697Z,100.00
2022-10-18T01:34:40.479Z,100.00
2022-10-18T01:37:45.132Z,100.00
2022-10-18T01:40:50.301Z,100.00
2022-10-18T01:43:58.656Z,100.00
2022-10-18T01:47:01.153Z,100.00
2022-10-18T01:50:06.160Z,100.00
2022-10-18T01:53:21.671Z,100.00
2022-10-18T01:56:55.041Z,100.00
2022-10-18T02:00:11.383Z,100.00
2022-10-18T02:03:23.945Z,100.00
2022-10-18T02:06:31.756Z,100.00
2022-10-18T02:09:42.815Z,100.00
2022-10-18T02:12:46.676Z,100.00
2022-10-18T02:15:52.460Z,100.00
2022-10-18T02:19:00.897Z,100.00
2022-10-18T02:22:04.378Z,100.00
2022-10-18T02:25:13.484Z,100.00
2022-10-18T02:28:15.368Z,100.00
2022-10-18T02:31:27.114Z,100.00
2022-10-18T02:34:42.414Z,100.00
2022-10-18T02:37:46.737Z,100.00
2022-10-18T02:40:48.248Z,100.00
2022-10-18T02:43:49.789Z,100.00
2022-10-18T02:46:52.481Z,100.00
2022-10-18T02:49:53.956Z,100.00
2022-10-18T02:52:55.519Z,100.00
2022-10-18T02:55:57.052Z,100.00
2022-10-18T02:58:58.532Z,100.00
2022-10-18T03:02:00.035Z,100.00
2022-10-18T03:05:01.668Z,100.00
2022-10-18T03:08:03.317Z,100.00
2022-10-18T03:11:04.872Z,100.00
2022-10-18T03:14:06.449Z,100.00
2022-10-18T03:17:08.140Z,100.00
2022-10-18T03:20:10.212Z,100.00
2022-10-18T03:23:11.668Z,100.00
2022-10-18T03:26:13.166Z,100.00
2022-10-18T03:29:14.688Z,100.00
2022-10-18T03:32:16.163Z,100.00
2022-10-18T03:35:17.804Z,100.00
2022-10-18T03:38:19.314Z,100.00
2022-10-18T03:41:20.906Z,100.00
2022-10-18T03:44:22.411Z,100.00
2022-10-18T03:47:24.024Z,100.00
2022-10-18T03:50:25.524Z,100.00
2022-10-18T03:53:27.035Z,100.00
2022-10-18T03:56:28.579Z,100.00
2022-10-18T03:59:30.067Z,100.00
2022-10-18T04:02:31.933Z,100.00
2022-10-18T04:05:34.498Z,100.00
2022-10-18T04:08:36.212Z,100.00
2022-10-18T04:11:37.828Z,100.00
2022-10-18T04:14:39.334Z,100.00
2022-10-18T04:17:41.422Z,100.00
2022-10-18T04:20:42.886Z,100.00
2022-10-18T04:23:46.862Z,100.00
2022-10-18T04:26:48.508Z,100.00
2022-10-18T04:29:49.986Z,100.00
2022-10-18T04:32:51.532Z,100.00
2022-10-18T04:35:53.374Z,100.00
2022-10-18T04:38:54.844Z,100.00
2022-10-18T04:41:56.354Z,100.00
2022-10-18T04:44:57.853Z,100.00
2022-10-18T04:47:59.331Z,100.00
2022-10-18T04:51:00.931Z,100.00
2022-10-18T04:54:02.681Z,100.00
2022-10-18T04:57:04.425Z,100.00
2022-10-18T05:00:06.496Z,100.00
2022-10-18T05:03:08.605Z,100.00
2022-10-18T05:06:10.266Z,100.00
2022-10-18T05:09:11.839Z,100.00
2022-10-18T05:12:13.315Z,100.00
2022-10-18T05:15:14.982Z,100.00
2022-10-18T05:18:18.811Z,100.00
2022-10-18T05:21:20.409Z,100.00
2022-10-18T05:24:24.206Z,100.00
2022-10-18T05:27:29.231Z,100.00
2022-10-18T05:30:30.760Z,100.00
2022-10-18T05:33:32.927Z,100.00
2022-10-18T05:36:34.399Z,100.00
2022-10-18T05:39:37.303Z,100.00
2022-10-18T05:42:38.746Z,100.00
2022-10-18T05:45:40.198Z,100.00
2022-10-18T05:48:43.163Z,100.00
2022-10-18T05:51:44.636Z,100.00
2022-10-18T05:54:48.628Z,100.00
2022-10-18T05:57:50.508Z,100.00
2022-10-18T06:00:52.035Z,100.00
2022-10-18T06:03:53.492Z,100.00
2022-10-18T06:06:57.576Z,100.00
2022-10-18T06:09:58.928Z,100.00
2022-10-18T06:13:00.407Z,100.00
2022-10-18T06:16:01.930Z,100.00
2022-10-18T06:19:03.741Z,100.00
2022-10-18T06:22:05.296Z,100.00
2022-10-18T06:25:07.033Z,100.00
2022-10-18T06:28:10.256Z,100.00
2022-10-18T06:31:14.337Z,100.00
2022-10-18T06:34:15.762Z,100.00
2022-10-18T06:37:17.343Z,100.00
2022-10-18T06:40:18.798Z,100.00
2022-10-18T06:43:21.514Z,100.00
2022-10-18T06:46:24.085Z,100.00
2022-10-18T06:49:25.609Z,100.00
2022-10-18T06:52:27.076Z,100.00
2022-10-18T06:55:28.764Z,100.00
2022-10-18T06:58:30.986Z,100.00
2022-10-18T07:01:32.535Z,100.00
2022-10-18T07:04:34.129Z,100.00
2022-10-18T07:07:35.895Z,100.00
2022-10-18T07:10:37.608Z,100.00
2022-10-18T07:13:39.064Z,100.00
2022-10-18T07:16:40.483Z,100.00
2022-10-18T07:19:42.005Z,100.00
2022-10-18T07:22:43.438Z,100.00
2022-10-18T07:25:44.969Z,100.00
2022-10-18T07:28:49.706Z,100.00
2022-10-18T07:31:51.244Z,100.00
2022-10-18T07:34:52.692Z,100.00
2022-10-18T07:37:54.121Z,100.00
2022-10-18T07:41:00.152Z,100.00
2022-10-18T07:44:02.586Z,98.86
2022-10-18T07:47:04.132Z,97.38
2022-10-18T07:50:08.389Z,93.33
2022-10-18T07:53:09.852Z,89.72
2022-10-18T07:56:16.966Z,86.80
2022-10-18T07:59:18.436Z,84.50
2022-10-18T08:02:19.935Z,81.05
2022-10-18T08:05:21.391Z,78.82
2022-10-18T08:08:24.278Z,76.86
2022-10-18T08:11:26.140Z,76.13
2022-10-18T08:14:27.652Z,74.65
2022-10-18T08:17:29.197Z,73.27
2022-10-18T08:20:32.012Z,73.14
2022-10-18T08:23:33.865Z,72.78
2022-10-18T08:26:35.377Z,72.62
2022-10-18T08:29:36.850Z,72.19
2022-10-18T08:32:38.419Z,72.14
2022-10-18T08:35:39.845Z,72.75
2022-10-18T08:38:42.399Z,72.85
2022-10-18T08:42:14.626Z,72.18
2022-10-18T08:45:41.098Z,71.45
2022-10-18T08:48:43.255Z,70.63
2022-10-18T08:51:49.144Z,70.49
2022-10-18T08:55:03.332Z,71.12
2022-10-18T08:58:19.215Z,71.41
2022-10-18T09:01:50.948Z,71.76
2022-10-18T09:05:16.708Z,71.98
2022-10-18T09:08:47.261Z,72.88
2022-10-18T09:12:26.291Z,72.59
2022-10-18T09:15:27.720Z,73.11
2022-10-18T09:18:54.648Z,72.42
2022-10-18T09:22:17.975Z,72.09
2022-10-18T09:25:35.278Z,71.82
2022-10-18T09:28:56.381Z,70.81
2022-10-18T09:32:04.704Z,70.19
2022-10-18T09:35:18.393Z,69.92
2022-10-18T09:41:53.280Z,68.61
2022-10-18T09:45:02.853Z,69.28
2022-10-18T09:48:11.444Z,69.77
2022-10-18T09:51:22.157Z,69.84
2022-10-18T09:54:33.858Z,70.28
2022-10-18T09:57:41.081Z,71.18
2022-10-18T10:00:48.236Z,71.52
2022-10-18T10:03:49.989Z,71.61
2022-10-18T10:06:53.981Z,71.24
2022-10-18T10:09:56.628Z,70.36
2022-10-18T10:13:26.148Z,69.92
2022-10-18T10:16:28.016Z,68.22
2022-10-18T10:19:55.319Z,66.95
2022-10-18T10:23:07.113Z,65.06
2022-10-18T10:26:29.982Z,64.59
2022-10-18T10:29:46.806Z,65.60
2022-10-18T10:32:50.755Z,66.50
2022-10-18T10:35:58.316Z,67.66
2022-10-18T10:39:19.043Z,67.87
2022-10-18T10:42:20.588Z,67.31
2022-10-18T10:45:27.352Z,66.42
2022-10-18T10:48:33.999Z,66.09
2022-10-18T10:51:38.412Z,66.05
2022-10-18T10:54:45.571Z,66.16
2022-10-18T10:57:52.207Z,66.09
2022-10-18T11:00:56.248Z,66.02
2022-10-18T11:04:22.837Z,65.84
2022-10-18T11:07:36.490Z,64.85
2022-10-18T11:11:07.285Z,64.48
2022-10-18T11:14:31.870Z,64.13
2022-10-18T11:17:44.511Z,64.07
2022-10-18T11:21:16.601Z,63.97
2022-10-18T11:24:18.232Z,64.14
2022-10-18T11:27:28.277Z,64.17
2022-10-18T11:30:36.955Z,63.13
2022-10-18T11:34:08.311Z,63.19
2022-10-18T11:37:53.608Z,64.22
2022-10-18T11:41:37.352Z,64.37
2022-10-18T11:45:27.030Z,64.18
2022-10-18T11:48:34.634Z,64.07
2022-10-18T11:52:19.555Z,64.17
2022-10-18T11:55:25.682Z,64.07
2022-10-18T11:58:37.881Z,64.35
2022-10-18T12:02:05.221Z,64.37
2022-10-18T12:05:23.216Z,63.97
2022-10-18T12:08:31.582Z,63.15
2022-10-18T12:11:41.846Z,63.42
2022-10-18T12:14:53.012Z,63.39
2022-10-18T12:17:58.432Z,63.19
2022-10-18T12:21:01.871Z,62.74
2022-10-18T12:24:11.270Z,62.59
2022-10-18T12:27:15.716Z,62.63
2022-10-18T12:30:27.034Z,62.50
2022-10-18T12:33:35.813Z,62.33
2022-10-18T12:36:53.729Z,62.47
2022-10-18T12:40:15.525Z,62.42
2022-10-18T12:43:26.392Z,62.24
2022-10-18T12:46:45.543Z,61.88
2022-10-18T12:49:56.848Z,61.83
2022-10-18T12:53:06.680Z,61.96
2022-10-18T12:56:30.128Z,61.99
2022-10-18T12:59:31.641Z,61.72
2022-10-18T13:02:33.502Z,61.69
2022-10-18T13:05:55.580Z,61.31
2022-10-18T13:09:19.935Z,61.94
2022-10-18T13:12:21.368Z,61.12
2022-10-18T13:15:41.334Z,60.20
2022-10-18T13:18:54.975Z,60.43
2022-10-18T13:22:24.388Z,60.19
2022-10-18T13:25:49.915Z,60.25
2022-10-18T13:29:18.620Z,59.32
2022-10-18T13:32:36.863Z,59.23
2022-10-18T13:35:40.670Z,59.00
2022-10-18T13:38:47.268Z,58.53
2022-10-18T13:41:49.932Z,58.65
2022-10-18T13:44:52.260Z,58.34
2022-10-18T13:47:53.758Z,57.94
2022-10-18T13:51:09.856Z,58.15
2022-10-18T13:54:22.430Z,58.02
2022-10-18T13:57:34.481Z,58.21
2022-10-18T14:00:54.056Z,58.23
2022-10-18T14:04:16.619Z,57.83
2022-10-18T14:07:19.273Z,57.12
2022-10-18T14:10:43.302Z,56.81
2022-10-18T14:13:56.196Z,56.92
2022-10-18T14:17:17.894Z,57.08
2022-10-18T14:20:28.717Z,56.66
2022-10-18T14:23:43.150Z,56.27
2022-10-18T14:26:44.716Z,56.27
2022-10-18T14:29:47.353Z,55.59
2022-10-18T14:32:54.328Z,54.09
2022-10-18T14:36:16.062Z,50.94
2022-10-18T14:39:23.986Z,48.82
2022-10-18T14:42:27.264Z,49.65
2022-10-18T14:45:28.779Z,51.87
2022-10-18T14:48:30.260Z,53.64
2022-10-18T14:51:35.370Z,54.44
2022-10-18T14:54:38.146Z,55.11
2022-10-18T14:57:39.816Z,55.50
2022-10-18T15:00:43.878Z,56.21
2022-10-18T15:03:48.302Z,56.56
2022-10-18T15:06:50.119Z,56.63
2022-10-18T15:09:52.110Z,56.77
2022-10-18T15:13:10.478Z,56.84
2022-10-18T15:16:18.328Z,56.79
2022-10-18T15:19:30.025Z,57.01
2022-10-18T15:22:33.322Z,57.54
2022-10-18T15:25:35.912Z,58.12
2022-10-18T15:28:51.083Z,58.62
2022-10-18T15:31:52.682Z,59.31
2022-10-18T15:34:54.823Z,60.37
2022-10-18T15:37:58.714Z,60.93
2022-10-18T15:41:00.253Z,61.67
2022-10-18T15:44:19.185Z,61.34
2022-10-18T15:47:24.888Z,61.39
2022-10-18T15:50:50.611Z,63.99
2022-10-18T15:53:54.241Z,67.15
2022-10-18T15:56:56.564Z,69.92
2022-10-18T16:00:03.692Z,72.02
2022-10-18T16:03:14.451Z,74.08
2022-10-18T16:06:18.251Z,75.48
2022-10-18T16:09:22.454Z,77.82
2022-10-18T16:12:23.849Z,78.90
2022-10-18T16:15:25.315Z,80.58
2022-10-18T16:18:26.872Z,81.81
2022-10-18T16:21:37.187Z,83.47
2022-10-18T16:24:39.162Z,84.91
2022-10-18T16:27:40.718Z,85.79
2022-10-18T16:30:44.981Z,87.03
2022-10-18T16:33:46.758Z,88.79
2022-10-18T16:36:48.321Z,90.17
2022-10-18T16:39:49.923Z,91.15
2022-10-18T16:42:51.490Z,92.25
2022-10-18T16:45:54.199Z,93.37
2022-10-18T16:48:56.063Z,94.67
2022-10-18T16:51:57.778Z,95.79
2022-10-18T16:54:59.301Z,96.53
2022-10-18T16:58:00.839Z,97.64
2022-10-18T17:01:04.221Z,98.70
2022-10-18T17:04:08.315Z,99.30
2022-10-18T17:10:28.325Z,100.00
2022-10-18T17:13:29.888Z,100.00
2022-10-18T17:16:33.582Z,100.00
2022-10-18T17:19:35.242Z,100.00
2022-10-18T17:22:36.805Z,100.00
2022-10-18T17:25:51.451Z,100.00
2022-10-18T17:29:05.082Z,100.00
2022-10-18T17:32:07.689Z,100.00
2022-10-18T17:35:09.512Z,100.00
2022-10-18T17:38:11.288Z,100.00
2022-10-18T17:41:12.990Z,100.00
2022-10-18T17:44:14.576Z,100.00
2022-10-18T17:47:16.033Z,100.00
2022-10-18T17:50:17.685Z,100.00
2022-10-18T17:53:22.773Z,100.00
2022-10-18T17:56:24.767Z,100.00
2022-10-18T17:59:26.282Z,100.00
2022-10-18T18:02:27.861Z,100.00
2022-10-18T18:05:33.935Z,100.00
2022-10-18T18:08:35.428Z,100.00
2022-10-18T18:11:39.244Z,100.00
2022-10-18T18:14:40.775Z,100.00
2022-10-18T18:17:58.243Z,100.00
2022-10-18T18:20:59.968Z,100.00
2022-10-18T18:24:01.652Z,100.00
2022-10-18T18:27:03.147Z,100.00
2022-10-18T18:30:07.600Z,100.00
2022-10-18T18:33:13.735Z,100.00
2022-10-18T18:36:18.105Z,100.00
2022-10-18T18:39:24.902Z,100.00
2022-10-18T18:42:26.388Z,100.00
2022-10-18T18:45:29.142Z,100.00
2022-10-18T18:48:33.464Z,100.00
2022-10-18T18:51:37.938Z,100.00
2022-10-18T18:54:39.479Z,100.00
2022-10-18T18:57:41.061Z,100.00
2022-10-18T19:00:44.568Z,100.00
2022-10-18T19:03:48.931Z,100.00
2022-10-18T19:06:50.416Z,100.00
2022-10-18T19:09:52.085Z,100.00
2022-10-18T19:12:53.939Z,100.00
2022-10-18T19:16:16.869Z,100.00
2022-10-18T19:19:21.263Z,100.00
2022-10-18T19:22:22.743Z,100.00
2022-10-18T19:25:26.272Z,100.00
2022-10-18T19:28:28.760Z,100.00
2022-10-18T19:31:30.390Z,100.00
2022-10-18T19:34:34.306Z,100.00
2022-10-18T19:37:36.125Z,100.00
2022-10-18T19:40:37.642Z,100.00
2022-10-18T19:43:39.081Z,100.00
2022-10-18T19:46:40.567Z,100.00
2022-10-18T19:53:15.665Z,100.00
2022-10-18T19:56:20.329Z,100.00
2022-10-18T19:59:22.821Z,100.00
2022-10-18T20:02:24.380Z,100.00
2022-10-18T20:05:25.813Z,100.00
2022-10-18T20:08:29.614Z,100.00
2022-10-18T20:11:32.619Z,100.00
2022-10-18T20:14:34.252Z,100.00
2022-10-18T20:17:35.855Z,100.00
2022-10-18T20:20:37.598Z,100.00
2022-10-18T20:23:41.510Z,100.00
2022-10-18T20:26:43.712Z,100.00
2022-10-18T20:29:46.824Z,100.00
2022-10-18T20:32:51.642Z,100.00
2022-10-18T20:35:53.300Z,100.00
2022-10-18T20:38:55.339Z,100.00
2022-10-18T20:41:56.846Z,100.00
2022-10-18T20:44:58.492Z,100.00
2022-10-18T20:48:00.118Z,100.00
2022-10-18T20:51:07.030Z,100.00
2022-10-18T20:54:10.091Z,100.00
2022-10-18T20:57:11.646Z,100.00
2022-10-18T21:00:13.718Z,100.00
2022-10-18T21:03:15.274Z,100.00
2022-10-18T21:06:19.389Z,100.00
2022-10-18T21:09:21.253Z,100.00
2022-10-18T21:12:23.988Z,100.00
2022-10-18T21:15:27.058Z,100.00
2022-10-18T21:18:31.249Z,100.00
2022-10-18T21:21:33.419Z,100.00
2022-10-18T21:24:35.078Z,100.00
2022-10-18T21:27:36.737Z,100.00
2022-10-18T21:30:38.293Z,100.00
2022-10-18T21:33:41.233Z,100.00
2022-10-18T21:36:44.987Z,100.00
2022-10-18T21:39:46.597Z,100.00
2022-10-18T21:42:48.071Z,100.00
2022-10-18T21:45:49.549Z,100.00
2022-10-18T21:48:52.661Z,100.00
2022-10-18T21:51:54.278Z,100.00
2022-10-18T21:54:55.866Z,100.00
2022-10-18T21:57:57.525Z,100.00
2022-10-18T22:00:59.117Z,100.00
2022-10-18T22:04:03.916Z,100.00
2022-10-18T22:07:05.472Z,100.00
2022-10-18T22:10:07.319Z,100.00
2022-10-18T22:13:08.789Z,100.00
2022-10-18T22:16:12.393Z,100.00
2022-10-18T22:19:14.054Z,100.00
2022-10-18T22:22:15.597Z,100.00
2022-10-18T22:25:17.167Z,100.00
2022-10-18T22:28:18.721Z,100.00
2022-10-18T22:31:22.635Z,100.00
2022-10-18T22:34:29.006Z,100.00
2022-10-18T22:37:30.781Z,100.00
2022-10-18T22:40:32.450Z,100.00
2022-10-18T22:43:35.027Z,100.00
2022-10-18T22:46:36.561Z,100.00
2022-10-18T22:49:38.119Z,100.00
2022-10-18T22:52:39.674Z,100.00
2022-10-18T22:55:41.229Z,100.00
2022-10-18T22:58:42.888Z,100.00
2022-10-18T23:01:44.347Z,100.00
2022-10-18T23:04:45.847Z,100.00
2022-10-18T23:07:49.230Z,100.00
2022-10-18T23:10:55.329Z,100.00
2022-10-18T23:13:57.017Z,100.00
2022-10-18T23:16:58.576Z,100.00
2022-10-18T23:20:00.064Z,100.00
2022-10-18T23:23:01.587Z,100.00
2022-10-18T23:26:05.540Z,100.00
2022-10-18T23:29:07.165Z,100.00
2022-10-18T23:32:08.965Z,100.00
2022-10-18T23:35:10.562Z,100.00
2022-10-18T23:38:12.071Z,100.00
2022-10-18T23:41:15.368Z,100.00
2022-10-18T23:44:16.886Z,100.00
2022-10-18T23:47:18.567Z,100.00
2022-10-18T23:50:20.101Z,100.00
2022-10-18T23:53:22.375Z,100.00
2022-10-18T23:56:24.039Z,100.00
2022-10-18T23:59:25.641Z,100.00
